Sierra Vista Municipal Libby Army Air Field
KFHU : now visible

Airfield :











YOU CAN JOIN US ON...

 
LOGIN :

Register | Disclaimer

   EN    FR    IT 

 









Legend :    VFR   Marginal VFR   IFR   Intensive IFR   Very Intensive IFR
Visi :
Ceiling :
>= 8 km
>= 3000ft
5 to 8 km
1000 to 3000 ft
1500m to 5 km
500 to 1000 ft
800 to 1500m
200 to 500 ft
< 800m
< 200 ft
Symbols :   Thunderstorms  Fog  Heavy snow  Heavy precipitations  Wind > 20 kt






- Airport Elevation : 4719 ft
- IATA code : FHU


KFHU - Sierra Vista Municipal Libby Army Air Field

CURRENT METAR :
  • 141958Z AUTO 26020G25KT 10SM CLR 21/M04 A2996 RMK AO2 PK WND 24027/18 SLP094 T02101041

EXPIRED METARs :
  • 141928Z AUTO 26018G24KT 10SM CLR 21/M04 A2997 RMK AO2 SLP101
  • 141858Z AUTO 27017KT 10SM CLR 20/M02 A2999 RMK AO2 PK WND 24029/32 SLP111 T02041016
  • 141829Z AUTO 25017G25KT 10SM CLR 20/M03 A3000 RMK AO2 SLP111
  • 141758Z AUTO 25009KT 10SM CLR 19/M01 A3002 RMK AO2 SLP121 T01931010 10193 20050 55006
  • 141746Z AUTO 24011KT 10SM CLR 19/M01 A3002 RMK AO2 SLP121

TAF TAF KFHU
Valid from the 14 at 02:00 until the 15 at 08:00 UTC


140203Z 1402/1508 26009KT 9999 SKC 530105 QNH3001INS
BECMG 1414/1415 25012G18KT 9999 SKC 520009 QNH2992INS
TEMPO 1503/1508 24015G25KT TX21/1419Z TN03/1413Z LAST NO AMDS AFT 1406 NEXT 1602



MET'MAP, your aeronautical weather chart ! - Copyright ORBIFLY December 2007 - Disclaimer

ORBIFLY MET'MAP TEAM :

Programming & Development : Alexandra Zaïnal
Concept & original design : Baudouin d'Aumeries
Assistance for programming : Marc-Olivier Méhu
Technical & hardware support : Manuel Goepfert

Contact : metmap@orbifly.com




SOURCES & CREDITS :

   NOAA       Earth
Advisory